sensor_id;sensor_type;location;lat;lon;timestamp;pressure;altitude;pressure_sealevel;temperature;humidity
78675;BME280;67990;59.826;30.108;2023-03-18T00:00:32;102847.00;;;1.69;49.95
78675;BME280;67990;59.826;30.108;2023-03-18T00:02:59;102844.59;;;1.60;50.58
78675;BME280;67990;59.826;30.108;2023-03-18T00:05:26;102833.19;;;1.70;49.99
78675;BME280;67990;59.826;30.108;2023-03-18T00:07:53;102835.78;;;1.72;50.13
78675;BME280;67990;59.826;30.108;2023-03-18T00:10:23;102832.34;;;1.70;50.05
78675;BME280;67990;59.826;30.108;2023-03-18T00:12:50;102827.88;;;1.78;49.93
78675;BME280;67990;59.826;30.108;2023-03-18T00:15:18;102822.75;;;1.75;49.84
78675;BME280;67990;59.826;30.108;2023-03-18T00:17:46;102816.75;;;1.73;49.82
78675;BME280;67990;59.826;30.108;2023-03-18T00:20:15;102815.69;;;1.81;49.63
78675;BME280;67990;59.826;30.108;2023-03-18T00:22:43;102815.72;;;1.80;49.43
78675;BME280;67990;59.826;30.108;2023-03-18T00:25:13;102820.91;;;1.80;49.49
78675;BME280;67990;59.826;30.108;2023-03-18T00:27:41;102819.91;;;1.88;49.14
78675;BME280;67990;59.826;30.108;2023-03-18T00:30:10;102813.28;;;1.72;49.40
78675;BME280;67990;59.826;30.108;2023-03-18T00:32:38;102813.81;;;1.91;49.17
78675;BME280;67990;59.826;30.108;2023-03-18T00:35:06;102813.13;;;1.81;49.23
78675;BME280;67990;59.826;30.108;2023-03-18T00:37:34;102808.53;;;1.97;48.67
78675;BME280;67990;59.826;30.108;2023-03-18T00:40:04;102816.00;;;1.66;49.81
78675;BME280;67990;59.826;30.108;2023-03-18T00:42:34;102810.44;;;1.86;49.79
78675;BME280;67990;59.826;30.108;2023-03-18T00:45:07;102790.81;;;1.74;49.43
78675;BME280;67990;59.826;30.108;2023-03-18T00:47:35;102810.28;;;1.95;48.86
78675;BME280;67990;59.826;30.108;2023-03-18T00:50:04;102811.00;;;2.01;49.14
78675;BME280;67990;59.826;30.108;2023-03-18T00:52:32;102807.84;;;1.86;48.70
78675;BME280;67990;59.826;30.108;2023-03-18T00:54:59;102811.84;;;2.03;49.25
78675;BME280;67990;59.826;30.108;2023-03-18T00:57:28;102804.72;;;2.13;48.36
78675;BME280;67990;59.826;30.108;2023-03-18T00:59:56;102796.22;;;2.06;48.26
78675;BME280;67990;59.826;30.108;2023-03-18T01:02:26;102788.56;;;2.00;48.88
78675;BME280;67990;59.826;30.108;2023-03-18T01:04:54;102781.06;;;1.85;48.62
78675;BME280;67990;59.826;30.108;2023-03-18T01:07:21;102793.81;;;1.97;48.31
78675;BME280;67990;59.826;30.108;2023-03-18T01:09:49;102782.84;;;1.85;48.93
78675;BME280;67990;59.826;30.108;2023-03-18T01:12:17;102786.78;;;2.02;49.01
78675;BME280;67990;59.826;30.108;2023-03-18T01:14:44;102785.09;;;2.01;48.11
78675;BME280;67990;59.826;30.108;2023-03-18T01:17:11;102789.34;;;2.04;48.79
78675;BME280;67990;59.826;30.108;2023-03-18T01:19:40;102788.56;;;2.00;48.74
78675;BME280;67990;59.826;30.108;2023-03-18T01:22:08;102787.78;;;1.97;48.69
78675;BME280;67990;59.826;30.108;2023-03-18T01:24:41;102785.94;;;2.03;48.20
78675;BME280;67990;59.826;30.108;2023-03-18T01:27:10;102785.72;;;2.14;48.29
78675;BME280;67990;59.826;30.108;2023-03-18T01:29:39;102781.25;;;2.20;47.65
78675;BME280;67990;59.826;30.108;2023-03-18T01:32:13;102778.00;;;2.11;48.05
78675;BME280;67990;59.826;30.108;2023-03-18T01:34:42;102772.06;;;2.04;47.97
78675;BME280;67990;59.826;30.108;2023-03-18T01:37:09;102777.38;;;1.98;48.15
78675;BME280;67990;59.826;30.108;2023-03-18T01:39:39;102759.50;;;1.86;48.52
78675;BME280;67990;59.826;30.108;2023-03-18T01:42:14;102770.50;;;1.96;48.09
78675;BME280;67990;59.826;30.108;2023-03-18T01:44:43;102768.69;;;2.01;48.24
78675;BME280;67990;59.826;30.108;2023-03-18T01:47:12;102768.78;;;1.96;48.39
78675;BME280;67990;59.826;30.108;2023-03-18T01:49:47;102765.97;;;2.07;48.22
78675;BME280;67990;59.826;30.108;2023-03-18T01:52:16;102765.59;;;2.25;47.68
78675;BME280;67990;59.826;30.108;2023-03-18T01:54:59;102752.50;;;1.90;48.00
78675;BME280;67990;59.826;30.108;2023-03-18T01:57:28;102768.91;;;1.90;48.33
78675;BME280;67990;59.826;30.108;2023-03-18T01:59:57;102765.03;;;2.11;47.75
78675;BME280;67990;59.826;30.108;2023-03-18T02:02:27;102766.72;;;2.12;47.77
78675;BME280;67990;59.826;30.108;2023-03-18T02:05:00;102769.19;;;2.19;47.45
78675;BME280;67990;59.826;30.108;2023-03-18T02:07:30;102764.06;;;2.16;48.03
78675;BME280;67990;59.826;30.108;2023-03-18T02:10:00;102766.59;;;2.19;47.60
78675;BME280;67990;59.826;30.108;2023-03-18T02:12:32;102769.81;;;2.29;47.35
78675;BME280;67990;59.826;30.108;2023-03-18T02:15:02;102766.72;;;2.12;47.76
78675;BME280;67990;59.826;30.108;2023-03-18T02:17:34;102764.69;;;1.85;48.44
78675;BME280;67990;59.826;30.108;2023-03-18T02:20:14;102769.44;;;2.07;48.45
78675;BME280;67990;59.826;30.108;2023-03-18T02:22:49;102756.81;;;2.30;47.73
78675;BME280;67990;59.826;30.108;2023-03-18T02:25:27;102760.28;;;2.31;47.92
78675;BME280;67990;59.826;30.108;2023-03-18T02:28:00;102760.47;;;2.22;48.10
78675;BME280;67990;59.826;30.108;2023-03-18T02:30:34;102762.91;;;2.29;47.65
78675;BME280;67990;59.826;30.108;2023-03-18T02:33:05;102756.97;;;2.24;47.97
78675;BME280;67990;59.826;30.108;2023-03-18T02:35:33;102750.38;;;2.10;47.75
78675;BME280;67990;59.826;30.108;2023-03-18T02:38:01;102747.81;;;2.08;48.20
78675;BME280;67990;59.826;30.108;2023-03-18T02:40:31;102755.69;;;2.02;48.30
78675;BME280;67990;59.826;30.108;2023-03-18T02:43:17;102758.03;;;2.14;48.31
78675;BME280;67990;59.826;30.108;2023-03-18T02:46:05;102761.41;;;2.19;47.86
78675;BME280;67990;59.826;30.108;2023-03-18T02:48:39;102757.50;;;2.38;47.71
78675;BME280;67990;59.826;30.108;2023-03-18T02:51:09;102763.72;;;2.31;47.49
78675;BME280;67990;59.826;30.108;2023-03-18T02:53:36;102762.25;;;2.18;47.96
78675;BME280;67990;59.826;30.108;2023-03-18T02:56:05;102763.56;;;2.39;47.84
78675;BME280;67990;59.826;30.108;2023-03-18T02:58:34;102766.41;;;2.28;47.32
78675;BME280;67990;59.826;30.108;2023-03-18T03:01:02;102762.13;;;2.26;48.00
78675;BME280;67990;59.826;30.108;2023-03-18T03:03:31;102768.09;;;2.29;48.13
78675;BME280;67990;59.826;30.108;2023-03-18T03:06:00;102767.94;;;2.35;47.71
78675;BME280;67990;59.826;30.108;2023-03-18T03:08:29;102775.66;;;2.38;47.70
78675;BME280;67990;59.826;30.108;2023-03-18T03:10:57;102773.84;;;2.42;47.51
78675;BME280;67990;59.826;30.108;2023-03-18T03:13:26;102774.13;;;2.30;48.07
78675;BME280;67990;59.826;30.108;2023-03-18T03:15:55;102772.75;;;2.14;48.09
78675;BME280;67990;59.826;30.108;2023-03-18T03:18:22;102764.56;;;2.32;47.61
78675;BME280;67990;59.826;30.108;2023-03-18T03:20:51;102774.22;;;2.25;47.87
78675;BME280;67990;59.826;30.108;2023-03-18T03:23:19;102769.66;;;2.38;47.54
78675;BME280;67990;59.826;30.108;2023-03-18T03:25:47;102754.91;;;2.38;47.29
78675;BME280;67990;59.826;30.108;2023-03-18T03:28:15;102766.06;;;2.42;47.62
78675;BME280;67990;59.826;30.108;2023-03-18T03:30:43;102760.00;;;2.44;47.21
78675;BME280;67990;59.826;30.108;2023-03-18T03:33:12;102760.97;;;2.39;47.77
78675;BME280;67990;59.826;30.108;2023-03-18T03:35:39;102764.41;;;2.39;48.04
78675;BME280;67990;59.826;30.108;2023-03-18T03:38:07;102763.31;;;2.51;47.78
78675;BME280;67990;59.826;30.108;2023-03-18T03:40:35;102762.63;;;2.43;47.43
78675;BME280;67990;59.826;30.108;2023-03-18T03:43:03;102762.59;;;2.44;47.23
78675;BME280;67990;59.826;30.108;2023-03-18T03:45:31;102759.84;;;2.50;47.39
78675;BME280;67990;59.826;30.108;2023-03-18T03:47:59;102745.31;;;2.42;47.15
78675;BME280;67990;59.826;30.108;2023-03-18T03:50:28;102741.94;;;2.40;47.90
78675;BME280;67990;59.826;30.108;2023-03-18T03:52:56;102741.00;;;2.42;47.29
78675;BME280;67990;59.826;30.108;2023-03-18T03:55:25;102739.16;;;2.47;47.10
78675;BME280;67990;59.826;30.108;2023-03-18T03:57:54;102742.16;;;2.29;47.73
78675;BME280;67990;59.826;30.108;2023-03-18T04:00:23;102736.66;;;2.44;47.54
78675;BME280;67990;59.826;30.108;2023-03-18T04:02:51;102729.91;;;2.36;47.53
78675;BME280;67990;59.826;30.108;2023-03-18T04:05:23;102727.22;;;2.40;47.36
78675;BME280;67990;59.826;30.108;2023-03-18T04:07:53;102730.19;;;2.24;47.33
78675;BME280;67990;59.826;30.108;2023-03-18T04:10:32;102741.38;;;2.26;47.97
78675;BME280;67990;59.826;30.108;2023-03-18T04:13:02;102721.56;;;2.23;47.32
78675;BME280;67990;59.826;30.108;2023-03-18T04:15:30;102728.19;;;2.36;47.67
78675;BME280;67990;59.826;30.108;2023-03-18T04:18:03;102692.84;;;1.93;47.72
78675;BME280;67990;59.826;30.108;2023-03-18T04:20:33;102724.28;;;2.17;48.17
78675;BME280;67990;59.826;30.108;2023-03-18T04:23:04;102731.16;;;2.18;47.87
78675;BME280;67990;59.826;30.108;2023-03-18T04:25:33;102730.69;;;2.39;47.35
78675;BME280;67990;59.826;30.108;2023-03-18T04:28:01;102731.84;;;2.26;47.25
78675;BME280;67990;59.826;30.108;2023-03-18T04:30:28;102730.59;;;2.44;46.84
78675;BME280;67990;59.826;30.108;2023-03-18T04:33:03;102729.22;;;2.28;47.26
78675;BME280;67990;59.826;30.108;2023-03-18T04:35:31;102731.59;;;2.37;47.23
78675;BME280;67990;59.826;30.108;2023-03-18T04:37:59;102722.38;;;2.25;47.41
78675;BME280;67990;59.826;30.108;2023-03-18T04:40:28;102719.78;;;2.25;47.51
78675;BME280;67990;59.826;30.108;2023-03-18T04:42:55;102725.97;;;2.18;47.60
78675;BME280;67990;59.826;30.108;2023-03-18T04:45:25;102713.72;;;2.25;48.00
78675;BME280;67990;59.826;30.108;2023-03-18T04:47:55;102718.91;;;2.25;48.00
78675;BME280;67990;59.826;30.108;2023-03-18T04:50:23;102710.72;;;2.44;47.20
78675;BME280;67990;59.826;30.108;2023-03-18T04:52:50;102712.09;;;2.59;47.14
78675;BME280;67990;59.826;30.108;2023-03-18T04:55:22;102716.44;;;2.57;47.00
78675;BME280;67990;59.826;30.108;2023-03-18T04:57:51;102710.09;;;2.70;46.74
78675;BME280;67990;59.826;30.108;2023-03-18T05:00:23;102711.72;;;2.74;45.78
78675;BME280;67990;59.826;30.108;2023-03-18T05:02:57;102713.59;;;2.67;46.13
78675;BME280;67990;59.826;30.108;2023-03-18T05:05:26;102707.59;;;2.67;46.24
78675;BME280;67990;59.826;30.108;2023-03-18T05:07:53;102715.38;;;2.67;46.68
78675;BME280;67990;59.826;30.108;2023-03-18T05:10:21;102706.22;;;2.51;46.67
78675;BME280;67990;59.826;30.108;2023-03-18T05:12:48;102706.78;;;2.63;46.50
78675;BME280;67990;59.826;30.108;2023-03-18T05:15:23;102703.88;;;2.77;46.25
78675;BME280;67990;59.826;30.108;2023-03-18T05:17:53;102699.28;;;2.88;45.82
78675;BME280;67990;59.826;30.108;2023-03-18T05:20:21;102696.78;;;2.83;45.76
78675;BME280;67990;59.826;30.108;2023-03-18T05:22:49;102690.44;;;2.95;45.32
78675;BME280;67990;59.826;30.108;2023-03-18T05:25:30;102689.28;;;3.06;45.50
78675;BME280;67990;59.826;30.108;2023-03-18T05:27:57;102689.22;;;3.08;45.74
78675;BME280;67990;59.826;30.108;2023-03-18T05:30:37;102683.50;;;3.29;44.75
78675;BME280;67990;59.826;30.108;2023-03-18T05:33:07;102685.44;;;3.21;45.10
78675;BME280;67990;59.826;30.108;2023-03-18T05:35:42;102677.00;;;3.13;44.95
78675;BME280;67990;59.826;30.108;2023-03-18T05:38:10;102678.16;;;3.33;44.72
78675;BME280;67990;59.826;30.108;2023-03-18T05:40:38;102641.41;;;3.16;44.81
78675;BME280;67990;59.826;30.108;2023-03-18T05:43:12;102677.13;;;3.40;44.83
78675;BME280;67990;59.826;30.108;2023-03-18T05:45:48;102671.09;;;3.38;44.71
78675;BME280;67990;59.826;30.108;2023-03-18T05:48:18;102676.00;;;3.49;44.71
78675;BME280;67990;59.826;30.108;2023-03-18T05:50:50;102673.09;;;3.59;44.67
78675;BME280;67990;59.826;30.108;2023-03-18T05:53:22;102681.00;;;3.56;43.94
78675;BME280;67990;59.826;30.108;2023-03-18T05:55:56;102679.47;;;3.49;44.56
78675;BME280;67990;59.826;30.108;2023-03-18T05:58:23;102675.31;;;3.73;43.95
78675;BME280;67990;59.826;30.108;2023-03-18T06:01:06;102678.88;;;3.99;43.77
78675;BME280;67990;59.826;30.108;2023-03-18T06:03:34;102683.28;;;3.97;43.49
78675;BME280;67990;59.826;30.108;2023-03-18T06:06:02;102675.94;;;3.81;43.71
78675;BME280;67990;59.826;30.108;2023-03-18T06:08:29;102688.53;;;3.96;44.13
78675;BME280;67990;59.826;30.108;2023-03-18T06:10:56;102673.53;;;4.04;43.56
78675;BME280;67990;59.826;30.108;2023-03-18T06:13:23;102678.38;;;4.16;43.44
78675;BME280;67990;59.826;30.108;2023-03-18T06:15:55;102676.84;;;4.09;43.83
78675;BME280;67990;59.826;30.108;2023-03-18T06:18:24;102682.53;;;4.21;42.90
78675;BME280;67990;59.826;30.108;2023-03-18T06:20:53;102675.25;;;4.32;43.15
78675;BME280;67990;59.826;30.108;2023-03-18T06:23:21;102659.97;;;4.49;42.48
78675;BME280;67990;59.826;30.108;2023-03-18T06:25:48;102673.16;;;4.71;42.39
78675;BME280;67990;59.826;30.108;2023-03-18T06:28:18;102674.53;;;5.07;40.90
78675;BME280;67990;59.826;30.108;2023-03-18T06:30:46;102650.81;;;4.90;41.28
78675;BME280;67990;59.826;30.108;2023-03-18T06:33:13;102681.19;;;4.89;41.86
78675;BME280;67990;59.826;30.108;2023-03-18T06:35:42;102667.72;;;5.03;41.12
78675;BME280;67990;59.826;30.108;2023-03-18T06:38:09;102673.34;;;4.91;41.48
78675;BME280;67990;59.826;30.108;2023-03-18T06:40:40;102662.41;;;4.80;41.15
78675;BME280;67990;59.826;30.108;2023-03-18T06:43:07;102667.25;;;4.66;41.82
78675;BME280;67990;59.826;30.108;2023-03-18T06:45:38;102672.03;;;4.52;42.06
78675;BME280;67990;59.826;30.108;2023-03-18T06:48:07;102673.84;;;4.76;42.06
78675;BME280;67990;59.826;30.108;2023-03-18T06:50:38;102673.84;;;4.50;42.43
78675;BME280;67990;59.826;30.108;2023-03-18T06:53:13;102673.22;;;4.68;42.08
78675;BME280;67990;59.826;30.108;2023-03-18T06:55:42;102665.25;;;4.98;41.59
78675;BME280;67990;59.826;30.108;2023-03-18T06:58:09;102664.94;;;5.07;41.06
78675;BME280;67990;59.826;30.108;2023-03-18T07:00:45;102674.53;;;5.07;41.28
78675;BME280;67990;59.826;30.108;2023-03-18T07:03:19;102649.72;;;4.95;41.17
78675;BME280;67990;59.826;30.108;2023-03-18T07:05:48;102667.25;;;5.41;41.00
78675;BME280;67990;59.826;30.108;2023-03-18T07:08:17;102674.56;;;5.30;40.11
78675;BME280;67990;59.826;30.108;2023-03-18T07:10:45;102658.13;;;5.29;40.47
78675;BME280;67990;59.826;30.108;2023-03-18T07:13:14;102651.06;;;5.31;40.08
78675;BME280;67990;59.826;30.108;2023-03-18T07:15:41;102653.97;;;5.24;40.11
78675;BME280;67990;59.826;30.108;2023-03-18T07:18:09;102668.91;;;4.93;41.23
78675;BME280;67990;59.826;30.108;2023-03-18T07:20:37;102657.78;;;4.89;41.03
78675;BME280;67990;59.826;30.108;2023-03-18T07:23:05;102678.34;;;4.97;41.02
78675;BME280;67990;59.826;30.108;2023-03-18T07:25:33;102663.88;;;4.62;40.99
78675;BME280;67990;59.826;30.108;2023-03-18T07:28:01;102662.16;;;4.61;41.25
78675;BME280;67990;59.826;30.108;2023-03-18T07:30:29;102661.41;;;4.84;41.47
78675;BME280;67990;59.826;30.108;2023-03-18T07:32:57;102661.50;;;4.81;41.37
78675;BME280;67990;59.826;30.108;2023-03-18T07:35:26;102632.34;;;4.71;41.39
78675;BME280;67990;59.826;30.108;2023-03-18T07:37:53;102653.97;;;4.98;40.97
78675;BME280;67990;59.826;30.108;2023-03-18T07:40:20;102645.59;;;4.90;41.11
78675;BME280;67990;59.826;30.108;2023-03-18T07:42:48;102660.09;;;4.97;40.75
78675;BME280;67990;59.826;30.108;2023-03-18T07:45:16;102660.91;;;4.99;41.21
78675;BME280;67990;59.826;30.108;2023-03-18T07:47:44;102653.78;;;4.79;41.44
78675;BME280;67990;59.826;30.108;2023-03-18T07:50:12;102641.69;;;5.03;41.27
78675;BME280;67990;59.826;30.108;2023-03-18T07:52:39;102655.50;;;5.05;40.71
78675;BME280;67990;59.826;30.108;2023-03-18T07:55:07;102640.31;;;5.17;41.02
78675;BME280;67990;59.826;30.108;2023-03-18T07:57:35;102640.56;;;5.34;40.01
78675;BME280;67990;59.826;30.108;2023-03-18T08:00:05;102636.19;;;5.58;39.39
78675;BME280;67990;59.826;30.108;2023-03-18T08:02:38;102632.41;;;5.43;39.60
78675;BME280;67990;59.826;30.108;2023-03-18T08:05:06;102632.63;;;5.60;39.44
78675;BME280;67990;59.826;30.108;2023-03-18T08:07:33;102644.34;;;5.72;39.05
78675;BME280;67990;59.826;30.108;2023-03-18T08:10:02;102623.72;;;5.66;39.46
78675;BME280;67990;59.826;30.108;2023-03-18T08:12:29;102631.03;;;5.56;39.26
78675;BME280;67990;59.826;30.108;2023-03-18T08:14:57;102627.81;;;5.50;39.33
78675;BME280;67990;59.826;30.108;2023-03-18T08:17:26;102617.78;;;5.62;39.21
78675;BME280;67990;59.826;30.108;2023-03-18T08:19:53;102635.25;;;5.60;38.56
78675;BME280;67990;59.826;30.108;2023-03-18T08:22:21;102619.25;;;5.69;39.25
78675;BME280;67990;59.826;30.108;2023-03-18T08:24:48;102622.44;;;5.54;38.58
78675;BME280;67990;59.826;30.108;2023-03-18T08:27:16;102627.13;;;5.68;37.97
78675;BME280;67990;59.826;30.108;2023-03-18T08:29:43;102621.75;;;5.72;38.63
78675;BME280;67990;59.826;30.108;2023-03-18T08:32:11;102621.44;;;5.80;37.73
78675;BME280;67990;59.826;30.108;2023-03-18T08:34:39;102628.00;;;5.92;37.83
78675;BME280;67990;59.826;30.108;2023-03-18T08:37:07;102626.72;;;5.78;36.98
78675;BME280;67990;59.826;30.108;2023-03-18T08:39:35;102618.81;;;5.81;37.10
78675;BME280;67990;59.826;30.108;2023-03-18T08:42:02;102624.59;;;5.89;37.40
78675;BME280;67990;59.826;30.108;2023-03-18T08:44:30;102614.34;;;6.07;37.36
78675;BME280;67990;59.826;30.108;2023-03-18T08:46:57;102622.25;;;5.83;36.94
78675;BME280;67990;59.826;30.108;2023-03-18T08:49:24;102617.25;;;6.22;36.60
78675;BME280;67990;59.826;30.108;2023-03-18T08:51:53;102613.28;;;6.12;36.40
78675;BME280;67990;59.826;30.108;2023-03-18T08:54:21;102618.50;;;6.12;36.05
78675;BME280;67990;59.826;30.108;2023-03-18T08:56:48;102610.78;;;6.09;35.76
78675;BME280;67990;59.826;30.108;2023-03-18T08:59:17;102609.81;;;5.90;35.73
78675;BME280;67990;59.826;30.108;2023-03-18T09:01:44;102608.13;;;6.11;35.08
78675;BME280;67990;59.826;30.108;2023-03-18T09:04:13;102603.69;;;6.13;36.32
78675;BME280;67990;59.826;30.108;2023-03-18T09:06:40;102612.63;;;6.29;36.05
78675;BME280;67990;59.826;30.108;2023-03-18T09:09:09;102602.34;;;6.46;35.27
78675;BME280;67990;59.826;30.108;2023-03-18T09:11:36;102610.41;;;6.40;34.84
78675;BME280;67990;59.826;30.108;2023-03-18T09:14:04;102609.75;;;6.56;34.76
78675;BME280;67990;59.826;30.108;2023-03-18T09:16:31;102599.69;;;6.47;34.13
78675;BME280;67990;59.826;30.108;2023-03-18T09:18:59;102602.09;;;6.52;33.98
78675;BME280;67990;59.826;30.108;2023-03-18T09:21:26;102594.13;;;6.55;34.69
78675;BME280;67990;59.826;30.108;2023-03-18T09:23:54;102598.09;;;6.63;33.72
78675;BME280;67990;59.826;30.108;2023-03-18T09:26:23;102596.34;;;6.64;34.25
78675;BME280;67990;59.826;30.108;2023-03-18T09:28:50;102596.47;;;6.61;33.53
78675;BME280;67990;59.826;30.108;2023-03-18T09:31:17;102601.03;;;6.56;34.27
78675;BME280;67990;59.826;30.108;2023-03-18T09:33:45;102588.28;;;6.70;33.49
78675;BME280;67990;59.826;30.108;2023-03-18T09:36:12;102595.03;;;6.74;34.06
78675;BME280;67990;59.826;30.108;2023-03-18T09:38:39;102589.72;;;6.97;34.02
78675;BME280;67990;59.826;30.108;2023-03-18T09:41:19;102569.31;;;7.05;33.26
78675;BME280;67990;59.826;30.108;2023-03-18T09:43:55;102586.97;;;7.00;32.24
78675;BME280;67990;59.826;30.108;2023-03-18T09:46:31;102575.53;;;7.02;32.90
78675;BME280;67990;59.826;30.108;2023-03-18T09:49:16;102581.94;;;6.95;32.65
78675;BME280;67990;59.826;30.108;2023-03-18T09:51:54;102582.19;;;7.09;32.19
78675;BME280;67990;59.826;30.108;2023-03-18T09:54:30;102574.94;;;6.76;32.71
78675;BME280;67990;59.826;30.108;2023-03-18T09:56:59;102571.28;;;7.00;32.69
78675;BME280;67990;59.826;30.108;2023-03-18T09:59:36;102572.97;;;7.21;33.05
78675;BME280;67990;59.826;30.108;2023-03-18T10:02:07;102571.81;;;7.08;33.07
78675;BME280;67990;59.826;30.108;2023-03-18T10:04:44;102557.78;;;7.29;33.03
78675;BME280;67990;59.826;30.108;2023-03-18T10:07:17;102572.75;;;7.25;32.57
78675;BME280;67990;59.826;30.108;2023-03-18T10:09:48;102575.56;;;7.59;32.00
78675;BME280;67990;59.826;30.108;2023-03-18T10:12:22;102546.78;;;7.41;32.37
78675;BME280;67990;59.826;30.108;2023-03-18T10:15:03;102550.16;;;7.80;31.66
78675;BME280;67990;59.826;30.108;2023-03-18T10:17:36;102554.66;;;7.95;31.53
78675;BME280;67990;59.826;30.108;2023-03-18T10:20:17;102548.31;;;8.17;30.72
78675;BME280;67990;59.826;30.108;2023-03-18T10:22:53;102537.59;;;8.05;30.16
78675;BME280;67990;59.826;30.108;2023-03-18T10:25:25;102540.06;;;7.54;31.64
78675;BME280;67990;59.826;30.108;2023-03-18T10:28:03;102545.16;;;7.75;31.94
78675;BME280;67990;59.826;30.108;2023-03-18T10:30:45;102532.41;;;8.03;31.67
78675;BME280;67990;59.826;30.108;2023-03-18T10:33:19;102538.56;;;7.67;32.10
78675;BME280;67990;59.826;30.108;2023-03-18T10:35:54;102532.06;;;7.75;31.87
78675;BME280;67990;59.826;30.108;2023-03-18T10:38:28;102524.34;;;8.08;31.59
78675;BME280;67990;59.826;30.108;2023-03-18T10:40:58;102516.81;;;8.37;31.02
78675;BME280;67990;59.826;30.108;2023-03-18T10:43:28;102518.53;;;8.71;31.36
78675;BME280;67990;59.826;30.108;2023-03-18T10:46:00;102513.91;;;8.76;30.94
78675;BME280;67990;59.826;30.108;2023-03-18T10:48:31;102511.75;;;9.16;30.58
78675;BME280;67990;59.826;30.108;2023-03-18T10:51:06;102495.22;;;8.99;30.76
78675;BME280;67990;59.826;30.108;2023-03-18T10:53:39;102498.19;;;9.08;30.89
78675;BME280;67990;59.826;30.108;2023-03-18T10:56:11;102504.00;;;8.98;31.05
78675;BME280;67990;59.826;30.108;2023-03-18T10:58:40;102483.28;;;8.61;31.92
78675;BME280;67990;59.826;30.108;2023-03-18T11:01:10;102491.63;;;8.52;31.99
78675;BME280;67990;59.826;30.108;2023-03-18T11:03:41;102493.59;;;8.30;32.38
78675;BME280;67990;59.826;30.108;2023-03-18T11:06:15;102478.69;;;8.32;32.52
78675;BME280;67990;59.826;30.108;2023-03-18T11:08:46;102484.03;;;8.46;32.51
78675;BME280;67990;59.826;30.108;2023-03-18T11:11:19;102489.97;;;8.32;32.23
78675;BME280;67990;59.826;30.108;2023-03-18T11:13:49;102483.94;;;8.64;32.99
78675;BME280;67990;59.826;30.108;2023-03-18T11:16:23;102463.25;;;8.60;32.11
78675;BME280;67990;59.826;30.108;2023-03-18T11:18:54;102464.19;;;8.42;32.64
78675;BME280;67990;59.826;30.108;2023-03-18T11:21:23;102448.25;;;8.46;32.38
78675;BME280;67990;59.826;30.108;2023-03-18T11:23:57;102454.84;;;8.19;32.78
78675;BME280;67990;59.826;30.108;2023-03-18T11:26:52;102451.28;;;8.20;32.65
78675;BME280;67990;59.826;30.108;2023-03-18T11:29:21;102423.88;;;8.10;33.16
78675;BME280;67990;59.826;30.108;2023-03-18T11:31:54;102442.44;;;8.06;33.05
78675;BME280;67990;59.826;30.108;2023-03-18T11:34:23;102439.19;;;8.18;33.11
78675;BME280;67990;59.826;30.108;2023-03-18T11:36:56;102433.91;;;8.02;33.52
78675;BME280;67990;59.826;30.108;2023-03-18T11:39:27;102428.25;;;7.93;33.80
78675;BME280;67990;59.826;30.108;2023-03-18T11:41:56;102430.34;;;7.86;33.49
78675;BME280;67990;59.826;30.108;2023-03-18T11:44:27;102429.66;;;7.83;34.46
78675;BME280;67990;59.826;30.108;2023-03-18T11:47:02;102418.50;;;7.79;33.76
78675;BME280;67990;59.826;30.108;2023-03-18T11:49:32;102421.41;;;7.73;34.66
78675;BME280;67990;59.826;30.108;2023-03-18T11:52:12;102407.47;;;7.73;33.75
78675;BME280;67990;59.826;30.108;2023-03-18T11:54:59;102423.34;;;7.87;34.03
78675;BME280;67990;59.826;30.108;2023-03-18T11:57:34;102416.31;;;7.70;34.26
78675;BME280;67990;59.826;30.108;2023-03-18T12:00:17;102411.56;;;7.78;33.87
78675;BME280;67990;59.826;30.108;2023-03-18T12:03:26;102403.63;;;7.80;34.13
78675;BME280;67990;59.826;30.108;2023-03-18T12:06:04;102401.13;;;7.60;34.39
78675;BME280;67990;59.826;30.108;2023-03-18T12:08:44;102398.88;;;7.88;34.50
78675;BME280;67990;59.826;30.108;2023-03-18T12:11:18;102404.97;;;8.05;33.38
78675;BME280;67990;59.826;30.108;2023-03-18T12:13:56;102398.94;;;8.03;33.73
78675;BME280;67990;59.826;30.108;2023-03-18T12:16:46;102399.13;;;8.00;33.85
78675;BME280;67990;59.826;30.108;2023-03-18T12:19:34;102399.66;;;8.07;33.64
78675;BME280;67990;59.826;30.108;2023-03-18T12:22:24;102385.84;;;8.03;34.23
78675;BME280;67990;59.826;30.108;2023-03-18T12:25:05;102376.19;;;8.22;33.76
78675;BME280;67990;59.826;30.108;2023-03-18T12:27:46;102370.22;;;8.19;34.61
78675;BME280;67990;59.826;30.108;2023-03-18T12:30:35;102374.22;;;8.26;33.82
78675;BME280;67990;59.826;30.108;2023-03-18T12:33:21;102375.91;;;8.10;34.02
78675;BME280;67990;59.826;30.108;2023-03-18T12:35:58;102373.56;;;7.88;34.08
78675;BME280;67990;59.826;30.108;2023-03-18T12:41:41;102383.88;;;8.25;34.28
78675;BME280;67990;59.826;30.108;2023-03-18T12:44:22;102370.13;;;8.20;34.49
78675;BME280;67990;59.826;30.108;2023-03-18T12:46:57;102363.22;;;8.19;33.74
78675;BME280;67990;59.826;30.108;2023-03-18T12:49:30;102362.16;;;8.23;33.98
78675;BME280;67990;59.826;30.108;2023-03-18T12:52:03;102359.38;;;8.09;34.92
78675;BME280;67990;59.826;30.108;2023-03-18T12:54:35;102362.00;;;8.09;34.75
78675;BME280;67990;59.826;30.108;2023-03-18T12:57:06;102361.84;;;8.12;34.60
78675;BME280;67990;59.826;30.108;2023-03-18T12:59:40;102360.59;;;8.36;34.75
78675;BME280;67990;59.826;30.108;2023-03-18T13:02:21;102356.75;;;8.26;33.97
78675;BME280;67990;59.826;30.108;2023-03-18T13:04:55;102360.25;;;8.27;34.11
78675;BME280;67990;59.826;30.108;2023-03-18T13:07:34;102347.56;;;8.18;34.22
78675;BME280;67990;59.826;30.108;2023-03-18T13:10:11;102356.31;;;8.01;34.63
78675;BME280;67990;59.826;30.108;2023-03-18T13:12:43;102356.47;;;7.98;34.35